Time;durP1;ratioP1;P1;durP2;ratioP2;P2;SDS_P1;SDS_P2;PMS_P1;PMS_P2;Temp;Humidity;BMP_temperature;BMP_pressure;BME280_temperature;BME280_humidity;BME280_pressure;Samples;Min_cycle;Max_cycle;Signal;HPM_P1;HPM_P2
2022/03/03 00:01:14;;;;;;;24.23;10.93;;;;;;;;;;5013245;28;20057;-69
2022/03/03 00:03:40;;;;;;;23.80;11.05;;;;;;;;;;5012781;28;20054;-68
2022/03/03 00:06:05;;;;;;;28.13;10.82;;;;;;;;;;5008063;28;20022;-68
2022/03/03 00:08:30;;;;;;;21.00;10.57;;;;;;;;;;5008013;28;20018;-69
2022/03/03 00:10:55;;;;;;;24.83;9.68;;;;;;;;;;5012555;28;20447;-69
2022/03/03 00:13:21;;;;;;;21.45;10.88;;;;;;;;;;5012322;28;20037;-69
2022/03/03 00:15:46;;;;;;;20.40;9.75;;;;;;;;;;5012974;28;20432;-68
2022/03/03 00:18:12;;;;;;;20.45;10.68;;;;;;;;;;5011875;28;20109;-68
2022/03/03 00:20:37;;;;;;;23.98;10.57;;;;;;;;;;5012920;28;20032;-68
2022/03/03 00:23:02;;;;;;;22.10;11.05;;;;;;;;;;5012577;28;20022;-69
2022/03/03 00:25:28;;;;;;;21.92;10.77;;;;;;;;;;5012840;28;20030;-68
2022/03/03 00:27:54;;;;;;;31.90;10.77;;;;;;;;;;5013060;28;20014;-68
2022/03/03 00:30:19;;;;;;;22.58;10.98;;;;;;;;;;5011592;28;20025;-68
2022/03/03 00:32:44;;;;;;;24.27;10.90;;;;;;;;;;5012255;28;20030;-68
2022/03/03 00:35:10;;;;;;;25.35;9.93;;;;;;;;;;5012363;28;20091;-69
2022/03/03 00:37:36;;;;;;;21.13;10.32;;;;;;;;;;5012719;28;20036;-68
2022/03/03 00:40:02;;;;;;;24.40;11.93;;;;;;;;;;5010109;28;20026;-68
2022/03/03 00:42:27;;;;;;;23.65;11.50;;;;;;;;;;5009615;28;20513;-68
2022/03/03 00:44:52;;;;;;;21.13;10.30;;;;;;;;;;5010442;28;20030;-68
2022/03/03 00:47:17;;;;;;;23.23;11.13;;;;;;;;;;5011400;28;20018;-68
2022/03/03 00:49:42;;;;;;;26.27;11.55;;;;;;;;;;5010601;28;20471;-68
2022/03/03 00:52:08;;;;;;;25.88;12.15;;;;;;;;;;5010950;28;20018;-68
2022/03/03 00:54:33;;;;;;;20.90;10.50;;;;;;;;;;5009958;28;20014;-68
2022/03/03 00:56:58;;;;;;;24.13;10.57;;;;;;;;;;5011048;28;20033;-68
2022/03/03 00:59:23;;;;;;;22.13;10.30;;;;;;;;;;5014779;28;20029;-68
2022/03/03 01:01:48;;;;;;;23.67;10.70;;;;;;;;;;5007166;28;20026;-68
2022/03/03 01:04:14;;;;;;;22.83;11.15;;;;;;;;;;5009080;28;20164;-68
2022/03/03 01:06:39;;;;;;;22.42;9.77;;;;;;;;;;5010970;28;20040;-68
2022/03/03 01:09:04;;;;;;;30.88;12.48;;;;;;;;;;5009906;28;20029;-68
2022/03/03 01:11:29;;;;;;;20.60;10.50;;;;;;;;;;5006766;28;20105;-68
2022/03/03 01:13:55;;;;;;;27.40;12.35;;;;;;;;;;5009154;28;20462;-68
2022/03/03 01:16:20;;;;;;;27.23;10.52;;;;;;;;;;5010904;28;20072;-68
2022/03/03 01:18:45;;;;;;;23.20;11.13;;;;;;;;;;5003690;28;20041;-68
2022/03/03 01:21:10;;;;;;;21.48;11.10;;;;;;;;;;5009953;28;20042;-68
2022/03/03 01:23:35;;;;;;;21.83;11.95;;;;;;;;;;5009454;28;20450;-68
2022/03/03 01:26:01;;;;;;;22.88;11.05;;;;;;;;;;5008881;28;20486;-68
2022/03/03 01:28:26;;;;;;;24.60;10.05;;;;;;;;;;5010060;28;20421;-68
2022/03/03 01:30:51;;;;;;;29.98;11.73;;;;;;;;;;5010063;28;20458;-68
2022/03/03 01:33:16;;;;;;;20.88;10.15;;;;;;;;;;5010797;28;20030;-68
2022/03/03 01:35:41;;;;;;;27.42;11.40;;;;;;;;;;5010282;28;20033;-68
2022/03/03 01:38:07;;;;;;;24.90;11.77;;;;;;;;;;5009997;28;20539;-68
2022/03/03 01:40:32;;;;;;;24.75;11.55;;;;;;;;;;4972268;28;1058590;-68
2022/03/03 01:42:57;;;;;;;25.70;11.35;;;;;;;;;;5010529;28;20525;-68
2022/03/03 01:45:22;;;;;;;25.92;9.85;;;;;;;;;;5010506;28;20022;-68
2022/03/03 01:47:48;;;;;;;28.60;11.52;;;;;;;;;;5010462;28;20536;-68
2022/03/03 01:50:13;;;;;;;24.02;10.48;;;;;;;;;;5013313;28;20112;-68
2022/03/03 01:52:40;;;;;;;24.33;11.27;;;;;;;;;;5017855;28;20022;-68
2022/03/03 01:55:05;;;;;;;21.10;10.63;;;;;;;;;;5010309;28;20455;-68
2022/03/03 01:57:30;;;;;;;25.35;10.70;;;;;;;;;;5011127;28;20033;-68
2022/03/03 01:59:56;;;;;;;25.10;11.50;;;;;;;;;;5010594;28;20037;-68
2022/03/03 02:02:22;;;;;;;24.02;10.85;;;;;;;;;;5010236;28;20022;-68
2022/03/03 02:04:47;;;;;;;21.95;11.05;;;;;;;;;;5009807;28;20391;-68
2022/03/03 02:07:13;;;;;;;25.05;10.82;;;;;;;;;;5013416;28;20034;-68
2022/03/03 02:09:39;;;;;;;24.23;12.15;;;;;;;;;;5015177;28;20026;-68
2022/03/03 02:12:04;;;;;;;23.75;11.27;;;;;;;;;;5010415;28;20022;-68
2022/03/03 02:14:39;;;;;;;22.08;11.00;;;;;;;;;;5010520;28;20037;-68
2022/03/03 02:17:04;;;;;;;28.25;12.88;;;;;;;;;;5006830;28;20382;-68
2022/03/03 02:19:29;;;;;;;25.88;11.48;;;;;;;;;;5007561;28;20029;-68
2022/03/03 02:21:54;;;;;;;24.58;12.25;;;;;;;;;;5008906;28;20029;-68
2022/03/03 02:24:20;;;;;;;27.23;11.68;;;;;;;;;;5012359;28;20021;-68
2022/03/03 02:26:45;;;;;;;28.55;12.63;;;;;;;;;;5010027;28;20018;-68
2022/03/03 02:29:11;;;;;;;27.33;11.70;;;;;;;;;;5010010;28;20037;-68
2022/03/03 02:31:36;;;;;;;25.52;12.07;;;;;;;;;;5010175;28;20030;-68
2022/03/03 02:34:01;;;;;;;24.63;11.93;;;;;;;;;;5010204;28;20049;-68
2022/03/03 02:36:27;;;;;;;34.90;12.20;;;;;;;;;;5009534;28;20033;-68
2022/03/03 02:38:55;;;;;;;21.55;11.27;;;;;;;;;;5009418;28;20022;-68
2022/03/03 02:41:20;;;;;;;25.20;12.77;;;;;;;;;;5009055;28;20025;-68
2022/03/03 02:43:46;;;;;;;32.88;12.52;;;;;;;;;;5010042;28;20014;-68
2022/03/03 02:46:11;;;;;;;23.45;11.32;;;;;;;;;;5009947;28;20118;-68
2022/03/03 02:48:36;;;;;;;36.78;12.48;;;;;;;;;;5010117;28;20375;-68
2022/03/03 02:51:02;;;;;;;23.83;10.95;;;;;;;;;;5009921;28;20024;-68
2022/03/03 02:53:27;;;;;;;24.38;11.30;;;;;;;;;;5009028;28;20022;-68
2022/03/03 02:55:54;;;;;;;27.77;13.07;;;;;;;;;;5009064;28;20033;-68
2022/03/03 02:58:19;;;;;;;24.52;11.55;;;;;;;;;;5011065;28;20038;-68
2022/03/03 03:00:46;;;;;;;24.83;11.52;;;;;;;;;;5010332;28;20056;-68
2022/03/03 03:03:12;;;;;;;28.27;12.48;;;;;;;;;;5009868;28;20057;-68
2022/03/03 03:05:37;;;;;;;24.63;12.02;;;;;;;;;;5009881;28;20065;-67
2022/03/03 03:08:03;;;;;;;25.48;11.30;;;;;;;;;;5009889;28;20018;-68
2022/03/03 03:10:28;;;;;;;27.48;11.25;;;;;;;;;;5009937;28;20026;-68
2022/03/03 03:12:54;;;;;;;30.58;12.20;;;;;;;;;;5009002;28;20045;-67
2022/03/03 03:15:19;;;;;;;22.77;11.30;;;;;;;;;;5012581;28;20041;-68
2022/03/03 03:17:44;;;;;;;22.58;11.00;;;;;;;;;;5013335;28;20104;-68
2022/03/03 03:20:10;;;;;;;23.98;11.38;;;;;;;;;;5009950;28;20028;-68
2022/03/03 03:22:36;;;;;;;23.70;10.70;;;;;;;;;;5005046;28;20517;-68
2022/03/03 03:25:01;;;;;;;28.98;11.45;;;;;;;;;;5009599;28;20022;-68
2022/03/03 03:27:27;;;;;;;23.92;11.85;;;;;;;;;;5009127;28;20021;-68
2022/03/03 03:29:52;;;;;;;27.15;12.73;;;;;;;;;;5009654;28;20022;-68
2022/03/03 03:32:17;;;;;;;26.75;11.55;;;;;;;;;;5011556;28;20025;-68
2022/03/03 03:34:42;;;;;;;22.23;11.43;;;;;;;;;;5013412;28;20076;-67
2022/03/03 03:37:08;;;;;;;25.35;11.93;;;;;;;;;;5013124;28;20475;-68
2022/03/03 03:39:33;;;;;;;24.65;10.60;;;;;;;;;;5012131;28;20021;-68
2022/03/03 03:41:58;;;;;;;27.92;11.60;;;;;;;;;;5011500;28;20111;-68
2022/03/03 03:44:23;;;;;;;24.02;10.93;;;;;;;;;;5013213;28;20076;-68
2022/03/03 03:46:48;;;;;;;20.13;10.05;;;;;;;;;;5013330;28;20052;-68
2022/03/03 03:49:14;;;;;;;20.45;9.43;;;;;;;;;;5015554;28;20025;-68
2022/03/03 03:51:39;;;;;;;22.98;11.23;;;;;;;;;;5020645;28;20026;-68
2022/03/03 03:54:04;;;;;;;22.05;10.27;;;;;;;;;;5012943;28;20018;-68
2022/03/03 03:56:29;;;;;;;22.08;10.30;;;;;;;;;;5013216;28;20034;-67
2022/03/03 03:58:54;;;;;;;23.08;10.70;;;;;;;;;;5012305;28;20050;-68
2022/03/03 04:01:19;;;;;;;22.80;11.00;;;;;;;;;;5012254;28;20030;-67
2022/03/03 04:03:45;;;;;;;25.52;10.30;;;;;;;;;;5012665;28;20113;-68
2022/03/03 04:06:10;;;;;;;22.27;11.45;;;;;;;;;;5013412;28;20029;-68
2022/03/03 04:08:36;;;;;;;23.73;12.23;;;;;;;;;;5012470;28;20025;-68
2022/03/03 04:11:02;;;;;;;23.30;11.00;;;;;;;;;;5012700;28;20414;-67
2022/03/03 04:13:27;;;;;;;25.08;11.15;;;;;;;;;;5013061;28;20021;-68
2022/03/03 04:15:52;;;;;;;23.73;10.88;;;;;;;;;;5012498;28;20494;-68
2022/03/03 04:18:17;;;;;;;27.35;11.48;;;;;;;;;;5008991;28;20103;-68
2022/03/03 04:20:43;;;;;;;23.30;11.13;;;;;;;;;;5011422;28;20489;-68
2022/03/03 04:23:08;;;;;;;25.20;11.27;;;;;;;;;;5014098;28;20022;-68
2022/03/03 04:25:33;;;;;;;22.95;10.52;;;;;;;;;;5014434;28;20018;-68
2022/03/03 04:27:59;;;;;;;24.20;11.40;;;;;;;;;;5010336;28;20109;-68
2022/03/03 04:30:24;;;;;;;22.63;11.60;;;;;;;;;;5012038;28;20360;-68
2022/03/03 04:32:49;;;;;;;26.60;11.45;;;;;;;;;;5012001;28;20022;-67
2022/03/03 04:35:14;;;;;;;25.90;10.73;;;;;;;;;;5011891;28;20032;-68
2022/03/03 04:37:39;;;;;;;25.95;11.60;;;;;;;;;;5010723;28;20036;-68
2022/03/03 04:40:05;;;;;;;22.63;10.40;;;;;;;;;;5007354;28;20037;-67
2022/03/03 04:42:30;;;;;;;21.10;10.52;;;;;;;;;;5011428;28;20034;-68
2022/03/03 04:44:55;;;;;;;23.25;10.77;;;;;;;;;;5010757;28;20041;-68
2022/03/03 04:47:21;;;;;;;25.30;11.20;;;;;;;;;;5009986;28;20029;-68
2022/03/03 04:49:46;;;;;;;22.25;10.93;;;;;;;;;;5009960;28;20057;-68
2022/03/03 04:52:11;;;;;;;19.40;10.18;;;;;;;;;;5011346;28;20075;-67
2022/03/03 04:54:36;;;;;;;23.02;11.80;;;;;;;;;;5009305;28;20029;-68
2022/03/03 04:57:02;;;;;;;24.60;10.52;;;;;;;;;;5010307;28;20022;-68
2022/03/03 04:59:27;;;;;;;26.92;10.32;;;;;;;;;;5010359;28;20018;-68
2022/03/03 05:01:52;;;;;;;25.65;10.55;;;;;;;;;;5010473;28;20018;-68
2022/03/03 05:04:18;;;;;;;21.17;10.73;;;;;;;;;;5010046;28;20029;-67
2022/03/03 05:06:44;;;;;;;22.83;10.77;;;;;;;;;;5011645;28;20098;-68
2022/03/03 05:09:10;;;;;;;22.95;10.93;;;;;;;;;;5010878;28;20022;-68
2022/03/03 05:11:35;;;;;;;26.42;10.80;;;;;;;;;;5011331;28;20497;-68
2022/03/03 05:14:00;;;;;;;30.25;12.00;;;;;;;;;;5009392;28;20044;-66
2022/03/03 05:16:25;;;;;;;20.48;10.63;;;;;;;;;;5013396;28;20018;-67
2022/03/03 05:18:50;;;;;;;30.30;11.88;;;;;;;;;;5010163;28;20541;-67
2022/03/03 05:21:16;;;;;;;22.33;10.90;;;;;;;;;;5010984;28;20021;-68
2022/03/03 05:23:41;;;;;;;22.25;11.55;;;;;;;;;;5008364;28;20025;-67
2022/03/03 05:26:06;;;;;;;28.30;10.90;;;;;;;;;;5010378;28;20064;-68
2022/03/03 05:28:31;;;;;;;22.45;10.98;;;;;;;;;;5010467;28;20018;-67
2022/03/03 05:30:56;;;;;;;30.35;11.23;;;;;;;;;;5011298;28;20034;-68
2022/03/03 05:33:21;;;;;;;31.35;10.30;;;;;;;;;;5011644;28;20092;-67
2022/03/03 05:35:48;;;;;;;21.13;10.18;;;;;;;;;;5010472;28;20034;-66
2022/03/03 05:38:13;;;;;;;20.08;9.25;;;;;;;;;;5010446;28;20459;-68
2022/03/03 05:40:38;;;;;;;21.52;10.88;;;;;;;;;;5009134;28;20100;-67
2022/03/03 05:43:03;;;;;;;23.38;10.65;;;;;;;;;;5011354;28;20036;-68
2022/03/03 05:45:30;;;;;;;21.17;9.70;;;;;;;;;;5010893;28;20355;-67
2022/03/03 05:47:55;;;;;;;19.98;10.38;;;;;;;;;;5007758;28;20041;-68
2022/03/03 05:50:20;;;;;;;22.58;9.95;;;;;;;;;;5008123;28;20036;-68
2022/03/03 05:52:46;;;;;;;23.42;9.95;;;;;;;;;;5007737;28;20022;-68
2022/03/03 05:55:12;;;;;;;25.48;9.73;;;;;;;;;;5007686;28;20458;-68
2022/03/03 05:57:44;;;;;;;19.63;8.50;;;;;;;;;;5008088;28;20470;-68
2022/03/03 06:00:13;;;;;;;17.50;7.40;;;;;;;;;;5007470;28;20034;-68
2022/03/03 06:02:47;;;;;;;21.63;10.25;;;;;;;;;;5007408;28;20108;-68
2022/03/03 06:05:13;;;;;;;22.15;9.77;;;;;;;;;;5010867;28;20080;-68
2022/03/03 06:07:41;;;;;;;18.27;9.60;;;;;;;;;;5015469;28;20022;-68
2022/03/03 06:10:07;;;;;;;19.83;8.90;;;;;;;;;;4988675;28;20022;-68
2022/03/03 06:12:47;;;;;;;22.55;9.40;;;;;;;;;;5002844;28;20014;-68
2022/03/03 06:15:13;;;;;;;23.80;9.50;;;;;;;;;;5011867;28;20028;-67
2022/03/03 06:17:39;;;;;;;23.27;9.70;;;;;;;;;;5007189;28;20080;-67
2022/03/03 06:20:04;;;;;;;23.63;8.93;;;;;;;;;;5007249;28;20040;-67
2022/03/03 06:22:30;;;;;;;24.17;10.32;;;;;;;;;;5007105;28;20029;-68
2022/03/03 06:24:55;;;;;;;23.60;9.75;;;;;;;;;;5007130;28;20022;-67
2022/03/03 06:27:20;;;;;;;18.50;8.95;;;;;;;;;;5006152;28;20029;-68
2022/03/03 06:29:45;;;;;;;23.85;10.35;;;;;;;;;;5005469;28;20020;-67
2022/03/03 06:32:11;;;;;;;19.40;9.57;;;;;;;;;;5007577;28;20247;-68
2022/03/03 06:34:37;;;;;;;33.38;9.65;;;;;;;;;;5006711;28;20040;-68
2022/03/03 06:37:03;;;;;;;24.70;10.05;;;;;;;;;;5006340;28;20123;-68
2022/03/03 06:39:28;;;;;;;28.70;11.35;;;;;;;;;;5006021;28;20476;-67
2022/03/03 06:41:53;;;;;;;25.35;10.55;;;;;;;;;;5002952;28;20474;-68
2022/03/03 06:44:19;;;;;;;22.40;11.23;;;;;;;;;;5001838;28;20046;-67
2022/03/03 06:46:44;;;;;;;26.25;11.18;;;;;;;;;;5009044;28;20125;-67
2022/03/03 06:49:10;;;;;;;31.15;11.57;;;;;;;;;;5009337;28;20410;-67
2022/03/03 06:51:45;;;;;;;25.50;10.80;;;;;;;;;;5009594;28;20015;-68
2022/03/03 06:54:14;;;;;;;28.70;11.07;;;;;;;;;;5009038;28;20049;-68
2022/03/03 06:56:59;;;;;;;37.70;13.05;;;;;;;;;;5009418;28;20030;-68
2022/03/03 06:59:26;;;;;;;26.10;10.50;;;;;;;;;;5007179;28;20541;-68
2022/03/03 07:01:51;;;;;;;25.80;11.48;;;;;;;;;;5005116;28;20069;-68
2022/03/03 07:04:17;;;;;;;26.70;11.85;;;;;;;;;;5007211;28;20386;-68
2022/03/03 07:06:43;;;;;;;27.23;11.82;;;;;;;;;;5005934;28;20418;-68
2022/03/03 07:09:09;;;;;;;27.02;12.77;;;;;;;;;;5011984;28;20072;-67
2022/03/03 07:11:34;;;;;;;24.50;11.27;;;;;;;;;;5013167;28;20060;-68
2022/03/03 07:13:59;;;;;;;25.27;11.38;;;;;;;;;;5009855;28;20049;-68
2022/03/03 07:16:37;;;;;;;25.33;11.80;;;;;;;;;;5010139;28;20054;-67
2022/03/03 07:19:03;;;;;;;23.77;11.35;;;;;;;;;;5010359;28;20029;-68
2022/03/03 07:21:38;;;;;;;27.23;11.48;;;;;;;;;;5008438;28;20661;-69
2022/03/03 07:24:04;;;;;;;33.55;12.55;;;;;;;;;;5013190;28;20359;-69
2022/03/03 07:26:30;;;;;;;24.63;11.88;;;;;;;;;;5013595;28;20022;-69
2022/03/03 07:28:59;;;;;;;28.17;12.20;;;;;;;;;;5012785;28;20029;-68
2022/03/03 07:31:26;;;;;;;24.17;11.93;;;;;;;;;;5012386;28;20382;-69
2022/03/03 07:33:55;;;;;;;24.13;12.25;;;;;;;;;;5011285;28;20576;-69
2022/03/03 07:36:24;;;;;;;21.73;10.93;;;;;;;;;;5008102;28;20059;-69
2022/03/03 07:38:55;;;;;;;35.15;12.48;;;;;;;;;;5012993;28;20073;-69
2022/03/03 07:41:21;;;;;;;21.02;10.52;;;;;;;;;;5011845;28;20037;-69
2022/03/03 07:43:46;;;;;;;23.63;11.70;;;;;;;;;;5012278;28;20025;-69
2022/03/03 07:46:12;;;;;;;21.02;11.82;;;;;;;;;;5012708;28;20482;-69
2022/03/03 07:48:38;;;;;;;18.60;11.15;;;;;;;;;;5012679;28;20377;-69
2022/03/03 07:51:03;;;;;;;24.27;11.68;;;;;;;;;;5013158;28;20574;-69
2022/03/03 07:53:28;;;;;;;29.73;13.23;;;;;;;;;;5013414;28;20053;-70
2022/03/03 07:55:56;;;;;;;27.65;13.43;;;;;;;;;;5012340;28;20113;-68
2022/03/03 07:58:23;;;;;;;20.50;12.55;;;;;;;;;;5013449;28;20054;-70
2022/03/03 08:00:49;;;;;;;18.15;10.90;;;;;;;;;;5012938;28;20028;-69
2022/03/03 08:03:21;;;;;;;23.00;10.63;;;;;;;;;;5012867;28;20018;-69
2022/03/03 08:05:47;;;;;;;17.40;10.52;;;;;;;;;;5012045;28;20097;-69
2022/03/03 08:08:14;;;;;;;16.58;9.65;;;;;;;;;;5008358;28;20054;-70
2022/03/03 08:10:40;;;;;;;15.25;9.10;;;;;;;;;;5012463;28;20018;-70
2022/03/03 08:13:06;;;;;;;14.13;9.25;;;;;;;;;;5013180;28;20097;-69
2022/03/03 08:15:31;;;;;;;13.70;9.15;;;;;;;;;;5012433;28;20117;-69
2022/03/03 08:17:56;;;;;;;19.88;9.70;;;;;;;;;;5011628;28;20037;-67
2022/03/03 08:20:22;;;;;;;18.60;10.05;;;;;;;;;;5011498;28;20018;-67
2022/03/03 08:22:47;;;;;;;16.48;9.73;;;;;;;;;;5012010;28;20029;-67
2022/03/03 08:25:13;;;;;;;18.60;10.10;;;;;;;;;;5012231;28;20033;-67
2022/03/03 08:27:40;;;;;;;16.00;10.05;;;;;;;;;;5012222;28;20488;-67
2022/03/03 08:30:06;;;;;;;17.58;10.00;;;;;;;;;;5011575;28;20022;-67
2022/03/03 08:32:34;;;;;;;15.25;9.02;;;;;;;;;;5012037;28;20371;-67
2022/03/03 08:35:07;;;;;;;18.73;10.40;;;;;;;;;;5002644;28;20153;-67
2022/03/03 08:37:40;;;;;;;16.95;10.27;;;;;;;;;;5010888;28;20029;-67
2022/03/03 08:40:06;;;;;;;18.10;10.18;;;;;;;;;;5011531;28;20022;-67
2022/03/03 08:42:36;;;;;;;13.38;7.53;;;;;;;;;;5010912;28;20033;-67
2022/03/03 08:45:03;;;;;;;21.08;9.43;;;;;;;;;;5009788;28;20038;-67
2022/03/03 08:47:29;;;;;;;16.55;9.32;;;;;;;;;;5011191;28;20028;-67
2022/03/03 08:49:56;;;;;;;16.73;10.50;;;;;;;;;;5011261;28;20022;-67
2022/03/03 08:52:23;;;;;;;17.60;10.45;;;;;;;;;;5011226;28;20097;-68
2022/03/03 08:54:48;;;;;;;17.63;10.25;;;;;;;;;;5011160;28;20481;-68
2022/03/03 08:57:13;;;;;;;20.50;11.13;;;;;;;;;;5011879;28;20111;-68
2022/03/03 08:59:38;;;;;;;15.97;8.97;;;;;;;;;;5010651;28;20119;-68
2022/03/03 09:02:04;;;;;;;20.50;11.07;;;;;;;;;;5010513;28;20272;-68
2022/03/03 09:04:29;;;;;;;15.63;9.85;;;;;;;;;;5011346;28;20285;-68
2022/03/03 09:06:54;;;;;;;17.83;10.63;;;;;;;;;;5011866;28;20022;-68
2022/03/03 09:09:19;;;;;;;18.23;10.48;;;;;;;;;;5009895;28;20096;-68
2022/03/03 09:11:45;;;;;;;25.13;11.35;;;;;;;;;;5009008;28;20105;-68
2022/03/03 09:14:11;;;;;;;19.38;10.32;;;;;;;;;;5010964;28;20022;-68
2022/03/03 09:16:36;;;;;;;24.98;10.82;;;;;;;;;;5010664;28;20026;-68
2022/03/03 09:19:01;;;;;;;27.60;12.20;;;;;;;;;;5010999;28;20368;-68
2022/03/03 09:21:28;;;;;;;16.63;10.70;;;;;;;;;;5010925;28;20030;-68
2022/03/03 09:23:53;;;;;;;15.88;9.02;;;;;;;;;;5010678;28;20016;-68
2022/03/03 09:26:18;;;;;;;19.88;7.35;;;;;;;;;;5011104;28;20022;-68
2022/03/03 09:28:43;;;;;;;15.73;7.57;;;;;;;;;;5010555;28;20030;-68
2022/03/03 09:31:08;;;;;;;18.60;9.43;;;;;;;;;;5009374;28;20691;-68
2022/03/03 09:33:34;;;;;;;19.67;11.50;;;;;;;;;;5010892;28;20410;-68
2022/03/03 09:35:59;;;;;;;20.77;10.60;;;;;;;;;;5011006;28;20276;-68
2022/03/03 09:38:24;;;;;;;23.40;10.97;;;;;;;;;;5010913;28;20299;-68
2022/03/03 09:40:49;;;;;;;19.80;10.70;;;;;;;;;;5010047;28;20264;-68
2022/03/03 09:43:15;;;;;;;14.02;7.32;;;;;;;;;;5010480;28;20030;-68
2022/03/03 09:45:40;;;;;;;15.85;7.03;;;;;;;;;;5010574;28;20479;-68
2022/03/03 09:48:07;;;;;;;19.30;11.15;;;;;;;;;;5009341;28;20022;-68
2022/03/03 09:50:35;;;;;;;18.98;9.95;;;;;;;;;;5010525;28;20025;-68
2022/03/03 09:53:04;;;;;;;22.10;11.27;;;;;;;;;;5009681;28;21754;-70
2022/03/03 09:55:29;;;;;;;18.88;8.82;;;;;;;;;;5010870;28;20061;-70
2022/03/03 09:57:54;;;;;;;18.20;7.63;;;;;;;;;;5010423;28;20084;-68
2022/03/03 10:00:20;;;;;;;21.42;11.43;;;;;;;;;;5009019;28;20038;-68
2022/03/03 10:02:57;;;;;;;22.38;11.15;;;;;;;;;;5009335;28;20036;-68
2022/03/03 10:05:33;;;;;;;11.65;6.30;;;;;;;;;;5006789;28;20025;-70
2022/03/03 10:08:03;;;;;;;13.60;8.32;;;;;;;;;;5002647;28;20419;-68
2022/03/03 10:10:28;;;;;;;21.60;11.02;;;;;;;;;;5003208;28;20017;-68
2022/03/03 10:12:55;;;;;;;18.83;8.73;;;;;;;;;;5010218;28;20100;-68
2022/03/03 10:15:24;;;;;;;17.90;9.20;;;;;;;;;;5010319;28;20577;-68
2022/03/03 10:17:54;;;;;;;19.88;9.98;;;;;;;;;;5009829;28;20172;-68
2022/03/03 10:20:19;;;;;;;;;;;;;;;;;;5010624;28;20022;-71
2022/03/03 10:22:57;;;;;;;20.13;9.85;;;;;;;;;;5010094;28;19968;-71
2022/03/03 10:25:35;;;;;;;23.10;11.27;;;;;;;;;;5010403;28;20025;-71
2022/03/03 10:28:13;;;;;;;23.08;11.27;;;;;;;;;;5010436;28;20382;-68
2022/03/03 10:30:53;;;;;;;21.38;11.88;;;;;;;;;;5009236;28;20072;-71
2022/03/03 10:33:19;;;;;;;19.52;12.13;;;;;;;;;;5008900;28;20021;-68
2022/03/03 10:35:58;;;;;;;16.95;9.57;;;;;;;;;;5009430;28;20121;-68
2022/03/03 10:38:23;;;;;;;19.27;9.40;;;;;;;;;;5008442;28;20037;-68
2022/03/03 10:40:48;;;;;;;16.75;9.38;;;;;;;;;;5010053;28;20339;-68
2022/03/03 10:43:13;;;;;;;22.77;12.25;;;;;;;;;;5011742;28;20032;-68
2022/03/03 10:45:52;;;;;;;19.03;9.03;;;;;;;;;;5013929;28;20066;-69
2022/03/03 10:48:20;;;;;;;23.50;11.35;;;;;;;;;;5011717;28;20276;-68
2022/03/03 10:50:46;;;;;;;21.08;11.15;;;;;;;;;;5013555;28;20025;-71
2022/03/03 10:53:11;;;;;;;21.13;11.52;;;;;;;;;;5014469;28;20080;-68
2022/03/03 10:55:37;;;;;;;25.58;10.95;;;;;;;;;;5011634;28;20553;-68
2022/03/03 10:58:03;;;;;;;21.88;11.60;;;;;;;;;;5014208;28;20029;-69
2022/03/03 11:00:29;;;;;;;19.13;10.20;;;;;;;;;;5012753;28;20532;-69
2022/03/03 11:02:55;;;;;;;18.83;10.32;;;;;;;;;;5012987;28;20030;-69
2022/03/03 11:05:25;;;;;;;14.75;5.57;;;;;;;;;;5013863;28;20033;-69
2022/03/03 11:07:51;;;;;;;18.88;11.20;;;;;;;;;;5014877;28;20017;-69
2022/03/03 11:10:17;;;;;;;19.88;10.98;;;;;;;;;;5017582;28;20034;-70
2022/03/03 11:12:43;;;;;;;20.58;10.82;;;;;;;;;;5014018;28;20340;-71
2022/03/03 11:15:09;;;;;;;16.05;7.57;;;;;;;;;;5013786;28;20029;-69
2022/03/03 11:17:35;;;;;;;18.65;11.07;;;;;;;;;;5012991;28;20026;-69
2022/03/03 11:20:00;;;;;;;18.20;11.00;;;;;;;;;;5013138;28;20014;-72
2022/03/03 11:22:30;;;;;;;20.33;12.10;;;;;;;;;;5013458;28;20026;-70
2022/03/03 11:24:57;;;;;;;20.58;11.95;;;;;;;;;;5013840;28;20426;-68
2022/03/03 11:27:30;;;;;;;26.42;11.82;;;;;;;;;;5012778;28;20022;-71
2022/03/03 11:30:14;;;;;;;19.48;10.15;;;;;;;;;;5013159;28;20088;-69
2022/03/03 11:32:39;;;;;;;19.95;11.40;;;;;;;;;;5012483;28;20041;-72
2022/03/03 11:35:09;;;;;;;19.10;10.48;;;;;;;;;;5013365;28;20025;-69
2022/03/03 11:37:38;;;;;;;17.85;11.43;;;;;;;;;;5006944;28;20030;-70
2022/03/03 11:40:04;;;;;;;20.10;11.80;;;;;;;;;;5006903;28;20026;-71
2022/03/03 11:42:36;;;;;;;17.90;10.75;;;;;;;;;;5011691;28;20549;-69
2022/03/03 11:45:07;;;;;;;17.17;10.20;;;;;;;;;;5014674;28;20014;-70
2022/03/03 11:47:34;;;;;;;17.02;10.95;;;;;;;;;;4998653;28;20537;-70
2022/03/03 11:49:59;;;;;;;21.52;11.02;;;;;;;;;;5013174;28;20084;-70
2022/03/03 11:52:24;;;;;;;20.60;9.77;;;;;;;;;;5012844;28;20018;-70
2022/03/03 11:54:54;;;;;;;19.20;12.07;;;;;;;;;;5010052;28;20631;-70
2022/03/03 11:57:23;;;;;;;;;;;;;;;;;;5015671;28;20108;-70
2022/03/03 11:59:48;;;;;;;20.75;11.00;;;;;;;;;;5012111;28;19917;-69
2022/03/03 12:02:17;;;;;;;18.38;10.35;;;;;;;;;;5012341;28;20109;-70
2022/03/03 12:04:44;;;;;;;18.00;9.48;;;;;;;;;;5013154;28;20141;-70
2022/03/03 12:07:27;;;;;;;18.33;9.40;;;;;;;;;;5014140;28;20013;-70
2022/03/03 12:09:53;;;;;;;15.73;9.48;;;;;;;;;;5015239;28;20509;-70
2022/03/03 12:12:19;;;;;;;15.50;8.55;;;;;;;;;;5013152;28;20029;-73
2022/03/03 12:14:59;;;;;;;16.30;8.27;;;;;;;;;;5012713;28;20040;-69
2022/03/03 12:17:33;;;;;;;18.02;8.93;;;;;;;;;;5014020;28;20026;-70
2022/03/03 12:20:17;;;;;;;14.68;8.45;;;;;;;;;;5008631;28;20030;-70
2022/03/03 12:23:12;;;;;;;13.60;7.80;;;;;;;;;;5006460;28;20505;-69
2022/03/03 12:25:50;;;;;;;18.08;9.07;;;;;;;;;;5000360;28;20041;-69
2022/03/03 12:28:15;;;;;;;15.60;8.38;;;;;;;;;;5008426;28;20083;-70
2022/03/03 12:30:44;;;;;;;15.77;9.15;;;;;;;;;;5009988;28;20022;-69
2022/03/03 12:33:18;;;;;;;16.55;8.52;;;;;;;;;;5011924;28;20053;-70
2022/03/03 12:35:44;;;;;;;17.08;9.02;;;;;;;;;;5011442;28;20033;-70
2022/03/03 12:38:10;;;;;;;15.75;8.02;;;;;;;;;;5011921;28;20057;-70
2022/03/03 12:40:36;;;;;;;15.82;8.63;;;;;;;;;;5010841;28;20053;-69
2022/03/03 12:43:02;;;;;;;15.10;8.73;;;;;;;;;;5010940;28;20057;-69
2022/03/03 12:45:29;;;;;;;10.80;5.97;;;;;;;;;;5016906;22;20070;-67
2022/03/03 12:47:54;;;;;;;19.92;8.50;;;;;;;;;;4974941;28;20026;-67
2022/03/03 12:50:25;;;;;;;14.25;8.77;;;;;;;;;;4981801;28;20069;-67
2022/03/03 12:52:55;;;;;;;15.13;8.98;;;;;;;;;;4981281;28;20049;-68
2022/03/03 12:55:25;;;;;;;13.25;8.05;;;;;;;;;;4976650;28;20395;-68
2022/03/03 12:57:51;;;;;;;;;;;;;;;;;;4954745;28;20023;-68
2022/03/03 13:00:16;;;;;;;17.15;8.63;;;;;;;;;;4952552;28;19933;-67
2022/03/03 13:02:51;;;;;;;15.40;9.13;;;;;;;;;;4952886;28;20537;-68
2022/03/03 13:05:28;;;;;;;16.92;8.40;;;;;;;;;;4952591;28;20027;-67
2022/03/03 13:07:53;;;;;;;16.83;9.30;;;;;;;;;;4952835;28;20022;-67
2022/03/03 13:10:18;;;;;;;15.75;8.82;;;;;;;;;;4953066;28;20023;-67
2022/03/03 13:12:44;;;;;;;14.20;8.77;;;;;;;;;;4952264;28;20027;-67
2022/03/03 13:15:10;;;;;;;17.90;9.23;;;;;;;;;;4952339;28;20019;-68
2022/03/03 13:17:35;;;;;;;17.63;9.18;;;;;;;;;;4961995;28;20114;-67
2022/03/03 13:20:03;;;;;;;14.17;8.00;;;;;;;;;;4951863;28;20050;-67
2022/03/03 13:22:34;;;;;;;13.38;8.52;;;;;;;;;;4942078;28;20371;-67
2022/03/03 13:25:15;;;;;;;14.55;9.30;;;;;;;;;;4952606;28;20122;-67
2022/03/03 13:27:44;;;;;;;17.40;8.90;;;;;;;;;;4950508;28;20185;-67
2022/03/03 13:30:10;;;;;;;16.50;9.23;;;;;;;;;;4957564;28;20022;-67
2022/03/03 13:32:42;;;;;;;19.08;9.63;;;;;;;;;;4950299;28;20595;-67
2022/03/03 13:35:07;;;;;;;14.32;8.18;;;;;;;;;;4952362;28;20367;-66
2022/03/03 13:37:32;;;;;;;14.85;7.65;;;;;;;;;;4953015;28;20123;-67
2022/03/03 13:40:10;;;;;;;14.90;8.50;;;;;;;;;;4951636;28;20098;-67
2022/03/03 13:42:37;;;;;;;13.95;7.57;;;;;;;;;;4951519;28;20795;-67
2022/03/03 13:45:03;;;;;;;11.60;6.93;;;;;;;;;;4952146;28;20461;-67
2022/03/03 13:47:30;;;;;;;12.30;7.20;;;;;;;;;;4951712;28;20031;-67
2022/03/03 13:49:56;;;;;;;11.55;6.15;;;;;;;;;;4951892;28;20027;-67
2022/03/03 13:52:22;;;;;;;9.98;5.75;;;;;;;;;;4952193;28;20073;-67
2022/03/03 13:54:49;;;;;;;19.70;6.22;;;;;;;;;;4965206;28;20018;-67
2022/03/03 13:57:33;;;;;;;14.43;6.05;;;;;;;;;;4951406;28;20058;-68
2022/03/03 13:59:59;;;;;;;10.68;6.93;;;;;;;;;;4945520;29;20106;-67
2022/03/03 14:02:25;;;;;;;13.68;7.20;;;;;;;;;;4950807;28;20019;-67
2022/03/03 14:04:57;;;;;;;13.32;6.72;;;;;;;;;;4950802;28;20034;-67
2022/03/03 14:07:29;;;;;;;11.25;6.82;;;;;;;;;;4951997;28;20027;-67
2022/03/03 14:09:58;;;;;;;12.43;6.40;;;;;;;;;;4951122;28;20027;-67
2022/03/03 14:12:24;;;;;;;10.77;6.38;;;;;;;;;;4953174;28;20070;-68
2022/03/03 14:14:49;;;;;;;10.48;6.05;;;;;;;;;;4951401;28;20019;-67
2022/03/03 14:17:14;;;;;;;14.07;6.93;;;;;;;;;;4951144;28;20077;-67
2022/03/03 14:19:41;;;;;;;12.38;6.63;;;;;;;;;;4950891;28;20059;-67